Time;durP1;ratioP1;P1;durP2;ratioP2;P2;SDS_P1;SDS_P2;PMS_P1;PMS_P2;Temp;Humidity;BMP_temperature;BMP_pressure;BME280_temperature;BME280_humidity;BME280_pressure;Samples;Min_cycle;Max_cycle;Signal;HPM_P1;HPM_P2
2021/06/03 00:00:30;;;;;;;6.97;2.65;;;;;;;;;;5134807;27;20023;-65
2021/06/03 00:02:56;;;;;;;6.50;2.67;;;;;;;;;;5152590;27;20026;-65
2021/06/03 00:05:30;;;;;;;6.07;2.33;;;;;;;;;;5174940;27;20018;-65
2021/06/03 00:07:57;;;;;;;4.38;2.60;;;;;;;;;;5174859;27;20051;-65
2021/06/03 00:10:27;;;;;;;5.60;2.70;;;;;;;;;;5175315;27;20018;-65
2021/06/03 00:12:54;;;;;;;4.50;2.30;;;;;;;;;;5175346;27;20026;-65
2021/06/03 00:15:20;;;;;;;4.05;2.45;;;;;;;;;;5175379;27;20528;-65
2021/06/03 00:17:46;;;;;;;5.75;2.42;;;;;;;;;;5156547;27;20388;-65
2021/06/03 00:20:14;;;;;;;5.20;2.58;;;;;;;;;;5175183;27;20054;-65
2021/06/03 00:22:40;;;;;;;5.68;2.65;;;;;;;;;;5175303;27;20018;-65
2021/06/03 00:25:07;;;;;;;12.45;3.33;;;;;;;;;;5156908;27;20501;-66
2021/06/03 00:27:33;;;;;;;5.25;2.47;;;;;;;;;;5174977;27;20061;-65
2021/06/03 00:29:59;;;;;;;9.55;2.85;;;;;;;;;;5174930;27;20022;-65
2021/06/03 00:32:25;;;;;;;5.53;2.75;;;;;;;;;;5174904;27;20022;-65
2021/06/03 00:34:51;;;;;;;9.00;3.03;;;;;;;;;;5156138;27;20431;-65
2021/06/03 00:37:17;;;;;;;5.80;2.75;;;;;;;;;;5174816;27;20079;-66
2021/06/03 00:39:43;;;;;;;6.43;2.55;;;;;;;;;;5175215;27;20040;-65
2021/06/03 00:42:09;;;;;;;4.40;2.72;;;;;;;;;;5174685;27;20606;-65
2021/06/03 00:44:35;;;;;;;7.53;2.95;;;;;;;;;;5174848;27;20029;-65
2021/06/03 00:47:01;;;;;;;6.93;2.67;;;;;;;;;;5174513;27;20022;-64
2021/06/03 00:49:27;;;;;;;6.25;2.80;;;;;;;;;;5174699;27;20029;-65
2021/06/03 00:51:54;;;;;;;5.40;3.00;;;;;;;;;;5155877;27;20018;-65
2021/06/03 00:54:20;;;;;;;4.53;2.40;;;;;;;;;;5155866;27;20053;-65
2021/06/03 00:56:46;;;;;;;5.28;2.42;;;;;;;;;;5155154;27;20029;-65
2021/06/03 00:59:12;;;;;;;4.78;2.40;;;;;;;;;;5134760;27;20014;-65
2021/06/03 01:01:38;;;;;;;4.70;2.60;;;;;;;;;;5153383;27;20070;-64
2021/06/03 01:04:05;;;;;;;6.47;2.33;;;;;;;;;;5153627;27;20077;-65
2021/06/03 01:06:31;;;;;;;9.43;2.60;;;;;;;;;;5153445;27;20025;-65
2021/06/03 01:09:00;;;;;;;8.45;3.10;;;;;;;;;;5139536;27;20027;-64
2021/06/03 01:11:32;;;;;;;4.93;2.63;;;;;;;;;;5132761;27;20169;-64
2021/06/03 01:14:30;;;;;;;6.80;2.88;;;;;;;;;;5114285;27;20555;-64
2021/06/03 01:16:57;;;;;;;6.38;2.67;;;;;;;;;;5112220;27;20035;-65
2021/06/03 01:19:25;;;;;;;5.43;2.70;;;;;;;;;;5114118;27;20027;-65
2021/06/03 01:21:54;;;;;;;4.40;2.30;;;;;;;;;;5132407;27;20030;-65
2021/06/03 01:24:25;;;;;;;5.38;2.80;;;;;;;;;;5132414;27;20072;-65
2021/06/03 01:26:52;;;;;;;5.13;2.40;;;;;;;;;;5132540;27;20087;-65
2021/06/03 01:29:18;;;;;;;4.78;2.72;;;;;;;;;;5132455;27;20019;-65
2021/06/03 01:31:46;;;;;;;3.85;2.28;;;;;;;;;;5132342;27;20062;-65
2021/06/03 01:34:13;;;;;;;4.20;2.33;;;;;;;;;;5132186;27;20084;-65
2021/06/03 01:36:39;;;;;;;5.15;2.60;;;;;;;;;;5113625;27;20023;-64
2021/06/03 01:39:06;;;;;;;5.75;2.65;;;;;;;;;;5131984;27;20039;-65
2021/06/03 01:41:32;;;;;;;5.97;2.75;;;;;;;;;;5132092;27;20044;-64
2021/06/03 01:43:59;;;;;;;5.57;2.55;;;;;;;;;;5131999;27;20107;-65
2021/06/03 01:46:25;;;;;;;5.95;2.70;;;;;;;;;;5132170;27;20496;-64
2021/06/03 01:48:51;;;;;;;5.40;2.53;;;;;;;;;;5132146;27;20410;-65
2021/06/03 01:51:18;;;;;;;3.85;2.22;;;;;;;;;;5132196;28;20019;-65
2021/06/03 01:53:44;;;;;;;4.90;2.60;;;;;;;;;;5113496;27;20084;-65
2021/06/03 01:56:15;;;;;;;4.60;2.50;;;;;;;;;;5145313;27;20514;-65
2021/06/03 01:58:41;;;;;;;4.90;2.30;;;;;;;;;;5152683;27;20486;-65
2021/06/03 02:01:07;;;;;;;6.35;2.40;;;;;;;;;;5152563;27;20042;-65
2021/06/03 02:03:34;;;;;;;4.90;2.38;;;;;;;;;;5152509;27;20023;-65
2021/06/03 02:06:00;;;;;;;5.47;2.47;;;;;;;;;;5152304;27;20019;-65
2021/06/03 02:08:26;;;;;;;4.07;2.50;;;;;;;;;;5133910;27;20455;-65
2021/06/03 02:10:53;;;;;;;6.50;2.42;;;;;;;;;;5152688;27;20054;-65
2021/06/03 02:13:21;;;;;;;4.45;2.30;;;;;;;;;;5152671;27;20007;-65
2021/06/03 02:15:50;;;;;;;4.28;2.25;;;;;;;;;;5134169;27;20130;-65
2021/06/03 02:18:17;;;;;;;4.68;2.20;;;;;;;;;;5152517;27;20490;-64
2021/06/03 02:20:44;;;;;;;5.55;2.40;;;;;;;;;;5152485;27;20033;-65
2021/06/03 02:23:11;;;;;;;5.25;2.45;;;;;;;;;;5152655;27;20031;-65
2021/06/03 02:25:37;;;;;;;5.88;2.90;;;;;;;;;;5152457;27;20023;-65
2021/06/03 02:28:04;;;;;;;5.80;2.50;;;;;;;;;;5152034;27;20529;-65
2021/06/03 02:30:32;;;;;;;4.43;2.33;;;;;;;;;;5152344;27;20416;-64
2021/06/03 02:32:59;;;;;;;4.97;2.28;;;;;;;;;;5152610;27;20417;-65
2021/06/03 02:35:26;;;;;;;4.45;2.25;;;;;;;;;;5152577;27;20377;-65
2021/06/03 02:37:52;;;;;;;5.45;2.63;;;;;;;;;;5152275;27;20083;-65
2021/06/03 02:40:20;;;;;;;7.43;2.60;;;;;;;;;;5152270;27;20023;-64
2021/06/03 02:42:47;;;;;;;4.05;2.10;;;;;;;;;;5133623;27;20051;-64
2021/06/03 02:45:19;;;;;;;6.13;2.45;;;;;;;;;;5133714;27;20356;-65
2021/06/03 02:47:45;;;;;;;5.65;2.40;;;;;;;;;;5152359;27;20030;-65
2021/06/03 02:50:12;;;;;;;4.18;2.05;;;;;;;;;;5133575;27;20117;-65
2021/06/03 02:52:39;;;;;;;6.68;2.70;;;;;;;;;;5152228;27;20034;-65
2021/06/03 02:55:06;;;;;;;4.75;2.17;;;;;;;;;;5147762;27;20012;-65
2021/06/03 02:57:32;;;;;;;3.85;2.25;;;;;;;;;;5131617;28;20069;-65
2021/06/03 02:59:58;;;;;;;5.38;2.47;;;;;;;;;;5131457;28;20011;-66
2021/06/03 03:02:24;;;;;;;5.55;2.25;;;;;;;;;;5131537;28;20167;-66
2021/06/03 03:04:51;;;;;;;6.80;2.15;;;;;;;;;;5131552;28;20102;-66
2021/06/03 03:07:17;;;;;;;6.10;2.08;;;;;;;;;;5133506;27;20023;-65
2021/06/03 03:09:43;;;;;;;4.47;2.25;;;;;;;;;;5135256;27;20026;-66
2021/06/03 03:12:09;;;;;;;3.72;2.00;;;;;;;;;;5134877;27;20323;-65
2021/06/03 03:14:36;;;;;;;5.10;2.30;;;;;;;;;;5135185;27;20023;-66
2021/06/03 03:17:03;;;;;;;5.22;1.95;;;;;;;;;;5135065;27;20094;-65
2021/06/03 03:19:29;;;;;;;3.58;1.90;;;;;;;;;;5134913;27;20099;-66
2021/06/03 03:21:56;;;;;;;5.30;2.13;;;;;;;;;;5134847;27;20080;-66
2021/06/03 03:24:22;;;;;;;3.67;1.92;;;;;;;;;;5134950;27;20576;-65
2021/06/03 03:26:48;;;;;;;3.70;2.10;;;;;;;;;;5134574;27;20023;-66
2021/06/03 03:29:14;;;;;;;7.05;2.17;;;;;;;;;;5134496;27;20478;-66
2021/06/03 03:31:40;;;;;;;5.10;2.10;;;;;;;;;;5116147;27;20015;-66
2021/06/03 03:34:06;;;;;;;3.92;1.70;;;;;;;;;;5116088;27;20118;-67
2021/06/03 03:36:32;;;;;;;3.83;2.10;;;;;;;;;;5134521;27;20023;-65
2021/06/03 03:38:59;;;;;;;5.00;2.10;;;;;;;;;;5134384;27;20045;-65
2021/06/03 03:41:25;;;;;;;3.80;1.80;;;;;;;;;;5116028;27;20039;-66
2021/06/03 03:43:51;;;;;;;3.95;2.05;;;;;;;;;;5134504;27;20015;-66
2021/06/03 03:46:18;;;;;;;5.03;2.35;;;;;;;;;;5134257;27;20450;-66
2021/06/03 03:48:44;;;;;;;4.65;2.03;;;;;;;;;;5134362;27;20098;-66
2021/06/03 03:51:13;;;;;;;4.68;1.95;;;;;;;;;;5133844;27;20026;-66
2021/06/03 03:53:42;;;;;;;5.90;2.17;;;;;;;;;;5154783;27;20461;-66
2021/06/03 03:56:09;;;;;;;4.78;2.15;;;;;;;;;;5122627;27;20031;-65
2021/06/03 03:58:38;;;;;;;4.10;2.00;;;;;;;;;;5134341;27;20019;-66
2021/06/03 04:01:05;;;;;;;5.20;2.13;;;;;;;;;;5133956;27;20038;-66
2021/06/03 04:03:31;;;;;;;4.55;2.33;;;;;;;;;;5134142;27;20524;-66
2021/06/03 04:05:57;;;;;;;4.22;2.10;;;;;;;;;;5133920;27;20019;-65
2021/06/03 04:08:23;;;;;;;4.03;1.98;;;;;;;;;;5134281;27;20027;-65
2021/06/03 04:10:50;;;;;;;4.53;2.15;;;;;;;;;;5133942;27;20023;-67
2021/06/03 04:13:16;;;;;;;4.40;1.98;;;;;;;;;;5133928;27;20031;-66
2021/06/03 04:15:42;;;;;;;4.65;2.20;;;;;;;;;;5115376;27;20471;-66
2021/06/03 04:18:08;;;;;;;4.40;1.80;;;;;;;;;;5133267;27;20521;-66
2021/06/03 04:20:34;;;;;;;3.80;1.95;;;;;;;;;;5133578;27;20048;-66
2021/06/03 04:23:01;;;;;;;4.07;1.88;;;;;;;;;;5133641;27;20373;-65
2021/06/03 04:25:27;;;;;;;4.78;2.30;;;;;;;;;;5115276;27;20065;-66
2021/06/03 04:27:53;;;;;;;5.00;1.98;;;;;;;;;;5133584;27;20019;-66
2021/06/03 04:30:21;;;;;;;6.57;2.60;;;;;;;;;;5133546;27;20430;-65
2021/06/03 04:32:47;;;;;;;4.75;2.15;;;;;;;;;;5133385;27;20110;-65
2021/06/03 04:35:17;;;;;;;3.97;2.10;;;;;;;;;;5133242;27;20577;-65
2021/06/03 04:37:44;;;;;;;4.68;1.90;;;;;;;;;;5133252;27;20126;-66
2021/06/03 04:40:11;;;;;;;4.80;2.35;;;;;;;;;;5133312;27;20040;-66
2021/06/03 04:42:37;;;;;;;3.67;2.08;;;;;;;;;;5133258;27;20062;-66
2021/06/03 04:45:04;;;;;;;4.18;2.00;;;;;;;;;;5133123;27;20020;-65
2021/06/03 04:47:30;;;;;;;5.32;2.10;;;;;;;;;;5133083;27;20069;-66
2021/06/03 04:49:56;;;;;;;4.63;1.90;;;;;;;;;;5133130;27;20027;-66
2021/06/03 04:52:26;;;;;;;5.05;2.45;;;;;;;;;;5133115;27;20020;-66
2021/06/03 04:54:55;;;;;;;4.88;2.30;;;;;;;;;;5132973;27;20098;-66
2021/06/03 04:57:22;;;;;;;5.45;2.40;;;;;;;;;;5132832;27;20023;-65
2021/06/03 04:59:48;;;;;;;5.90;2.40;;;;;;;;;;5132881;27;20030;-65
2021/06/03 05:02:14;;;;;;;5.50;2.30;;;;;;;;;;5132748;27;20059;-65
2021/06/03 05:04:41;;;;;;;4.80;2.15;;;;;;;;;;5133103;27;20026;-64
2021/06/03 05:07:07;;;;;;;4.00;1.98;;;;;;;;;;5132852;27;20091;-65
2021/06/03 05:09:33;;;;;;;4.57;2.13;;;;;;;;;;5114404;27;20527;-64
2021/06/03 05:11:59;;;;;;;5.72;2.20;;;;;;;;;;5132548;27;20079;-64
2021/06/03 05:14:25;;;;;;;4.10;2.25;;;;;;;;;;5132660;27;20019;-65
2021/06/03 05:16:51;;;;;;;4.60;2.10;;;;;;;;;;5132649;27;20019;-65
2021/06/03 05:19:17;;;;;;;4.13;2.20;;;;;;;;;;5132522;27;20087;-65
2021/06/03 05:21:43;;;;;;;5.47;2.30;;;;;;;;;;5132664;27;20091;-65
2021/06/03 05:24:09;;;;;;;4.65;2.20;;;;;;;;;;5132399;27;20079;-65
2021/06/03 05:26:35;;;;;;;3.85;1.92;;;;;;;;;;5114002;27;20069;-64
2021/06/03 05:29:01;;;;;;;5.32;2.25;;;;;;;;;;5113353;27;20071;-65
2021/06/03 05:31:27;;;;;;;5.07;2.25;;;;;;;;;;5132323;27;20077;-65
2021/06/03 05:33:53;;;;;;;6.05;1.83;;;;;;;;;;5132272;27;20018;-66
2021/06/03 05:36:19;;;;;;;5.82;2.25;;;;;;;;;;5132321;27;20023;-65
2021/06/03 05:38:45;;;;;;;4.10;1.92;;;;;;;;;;5132192;27;20095;-65
2021/06/03 05:41:12;;;;;;;5.60;2.00;;;;;;;;;;5132251;27;20023;-64
2021/06/03 05:43:38;;;;;;;4.10;1.85;;;;;;;;;;5132186;27;20029;-65
2021/06/03 05:46:04;;;;;;;5.78;2.17;;;;;;;;;;5131927;27;20546;-64
2021/06/03 05:48:30;;;;;;;7.32;2.45;;;;;;;;;;5132072;27;20031;-65
2021/06/03 05:50:56;;;;;;;4.63;2.20;;;;;;;;;;5132250;27;20068;-65
2021/06/03 05:53:22;;;;;;;4.05;2.00;;;;;;;;;;5132000;28;20106;-66
2021/06/03 05:55:48;;;;;;;5.15;2.13;;;;;;;;;;5142341;27;20015;-66
2021/06/03 05:58:14;;;;;;;6.85;2.33;;;;;;;;;;5133857;27;20354;-65
2021/06/03 06:00:40;;;;;;;5.85;2.40;;;;;;;;;;5152548;27;20406;-64
2021/06/03 06:03:19;;;;;;;5.25;2.03;;;;;;;;;;5152596;27;20098;-64
2021/06/03 06:08:29;;;;;;;4.78;1.98;;;;;;;;;;5152443;27;20067;-65
2021/06/03 06:10:56;;;;;;;5.72;2.63;;;;;;;;;;5152608;27;20023;-65
2021/06/03 06:13:22;;;;;;;8.68;2.10;;;;;;;;;;5133971;27;20027;-64
2021/06/03 06:15:48;;;;;;;9.25;2.22;;;;;;;;;;5152531;27;20014;-65
2021/06/03 06:18:14;;;;;;;8.75;2.58;;;;;;;;;;5152550;27;20117;-65
2021/06/03 06:20:40;;;;;;;7.10;2.45;;;;;;;;;;5152287;27;20084;-65
2021/06/03 06:23:07;;;;;;;5.80;1.98;;;;;;;;;;5152296;27;20057;-65
2021/06/03 06:25:33;;;;;;;4.60;2.33;;;;;;;;;;5152149;27;20011;-65
2021/06/03 06:28:00;;;;;;;6.57;1.90;;;;;;;;;;5152170;27;20022;-65
2021/06/03 06:30:27;;;;;;;5.57;2.00;;;;;;;;;;5152330;27;20034;-65
2021/06/03 06:32:53;;;;;;;6.03;1.90;;;;;;;;;;5152215;27;20019;-65
2021/06/03 06:35:19;;;;;;;4.40;2.20;;;;;;;;;;5151938;27;20026;-63
2021/06/03 06:37:45;;;;;;;5.00;2.20;;;;;;;;;;5152536;27;20106;-64
2021/06/03 06:40:11;;;;;;;8.07;2.40;;;;;;;;;;5153404;27;20018;-62
2021/06/03 06:42:38;;;;;;;7.18;2.55;;;;;;;;;;5138047;27;20614;-62
2021/06/03 06:45:05;;;;;;;4.90;1.85;;;;;;;;;;5156547;27;20026;-63
2021/06/03 06:47:33;;;;;;;4.88;2.15;;;;;;;;;;5156292;27;20499;-61
2021/06/03 06:49:59;;;;;;;6.32;2.10;;;;;;;;;;5156037;27;20019;-65
2021/06/03 06:52:25;;;;;;;8.23;2.30;;;;;;;;;;5156127;27;20053;-64
2021/06/03 06:54:51;;;;;;;4.35;2.30;;;;;;;;;;5153945;27;20022;-65
2021/06/03 06:57:17;;;;;;;4.30;2.08;;;;;;;;;;5135657;27;20022;-61
2021/06/03 06:59:43;;;;;;;4.55;1.98;;;;;;;;;;5135315;27;20031;-63
2021/06/03 07:02:09;;;;;;;5.97;1.92;;;;;;;;;;5135332;27;20059;-64
2021/06/03 07:04:35;;;;;;;4.55;2.00;;;;;;;;;;5135358;27;20019;-60
2021/06/03 07:07:01;;;;;;;6.28;2.53;;;;;;;;;;5135192;27;20023;-64
2021/06/03 07:09:27;;;;;;;4.78;2.30;;;;;;;;;;5135230;27;20019;-63
2021/06/03 07:11:53;;;;;;;5.25;2.03;;;;;;;;;;5135050;27;20023;-63
2021/06/03 07:14:19;;;;;;;3.60;1.73;;;;;;;;;;5116376;27;20102;-64
2021/06/03 07:16:46;;;;;;;4.60;1.60;;;;;;;;;;5134745;27;20026;-66
2021/06/03 07:19:12;;;;;;;8.25;2.10;;;;;;;;;;5135078;27;20101;-64
2021/06/03 07:21:38;;;;;;;3.85;1.60;;;;;;;;;;5134875;27;20027;-65
2021/06/03 07:24:04;;;;;;;8.18;1.95;;;;;;;;;;5134811;27;20053;-65
2021/06/03 07:26:30;;;;;;;5.30;2.15;;;;;;;;;;5134719;27;20110;-65
2021/06/03 07:28:56;;;;;;;6.00;1.75;;;;;;;;;;5134556;27;20019;-64
2021/06/03 07:31:22;;;;;;;4.85;1.90;;;;;;;;;;5134508;27;20030;-64
2021/06/03 07:33:48;;;;;;;4.95;1.88;;;;;;;;;;5116015;27;20011;-63
2021/06/03 07:36:15;;;;;;;6.60;1.90;;;;;;;;;;5134308;27;20023;-65
2021/06/03 07:38:41;;;;;;;5.45;1.65;;;;;;;;;;5134280;27;20039;-64
2021/06/03 07:41:08;;;;;;;6.57;2.13;;;;;;;;;;5134355;27;20506;-65
2021/06/03 07:43:34;;;;;;;6.00;2.00;;;;;;;;;;5134684;27;20026;-65
2021/06/03 07:46:00;;;;;;;6.43;1.90;;;;;;;;;;5135048;27;20023;-64
2021/06/03 07:48:26;;;;;;;6.18;1.88;;;;;;;;;;5134860;27;20023;-66
2021/06/03 07:50:53;;;;;;;3.13;1.70;;;;;;;;;;5154507;27;20025;-66
2021/06/03 07:53:19;;;;;;;5.65;2.33;;;;;;;;;;5154359;27;20489;-64
2021/06/03 07:55:45;;;;;;;5.88;2.20;;;;;;;;;;5154795;27;20014;-63
2021/06/03 07:58:12;;;;;;;3.63;1.60;;;;;;;;;;5154827;27;20057;-62
2021/06/03 08:00:41;;;;;;;4.50;1.90;;;;;;;;;;5154717;27;20014;-63
2021/06/03 08:03:08;;;;;;;5.35;1.90;;;;;;;;;;5136249;27;20029;-62
2021/06/03 08:05:34;;;;;;;4.30;2.00;;;;;;;;;;5136059;27;20039;-64
2021/06/03 08:08:00;;;;;;;3.72;1.95;;;;;;;;;;5154572;27;20428;-63
2021/06/03 08:10:31;;;;;;;4.57;1.80;;;;;;;;;;5154756;27;20010;-63
2021/06/03 08:12:58;;;;;;;7.43;2.53;;;;;;;;;;5154562;27;20034;-63
2021/06/03 08:15:25;;;;;;;6.05;1.98;;;;;;;;;;5154502;27;20398;-63
2021/06/03 08:17:51;;;;;;;4.95;2.28;;;;;;;;;;5154498;27;20034;-62
2021/06/03 08:20:22;;;;;;;3.72;1.60;;;;;;;;;;5135887;27;20019;-65
2021/06/03 08:22:49;;;;;;;4.95;1.88;;;;;;;;;;5154556;27;20057;-62
2021/06/03 08:25:16;;;;;;;5.57;1.70;;;;;;;;;;5154963;27;20023;-62
2021/06/03 08:27:42;;;;;;;3.40;1.60;;;;;;;;;;5154403;27;20044;-62
2021/06/03 08:30:11;;;;;;;6.25;1.75;;;;;;;;;;5154194;27;20079;-63
2021/06/03 08:32:38;;;;;;;4.80;1.80;;;;;;;;;;5154249;27;20122;-63
2021/06/03 08:35:04;;;;;;;5.40;1.77;;;;;;;;;;5154094;27;20022;-62
2021/06/03 08:37:30;;;;;;;5.75;1.70;;;;;;;;;;5154205;27;20043;-63
2021/06/03 08:39:56;;;;;;;3.90;1.95;;;;;;;;;;5135509;27;20045;-63
2021/06/03 08:42:22;;;;;;;4.72;2.13;;;;;;;;;;5153988;27;20047;-63
2021/06/03 08:44:48;;;;;;;5.55;1.90;;;;;;;;;;5154016;27;20015;-65
2021/06/03 08:47:15;;;;;;;4.03;1.60;;;;;;;;;;5154203;27;20038;-66
2021/06/03 08:49:41;;;;;;;4.72;1.80;;;;;;;;;;5154574;27;20518;-68
2021/06/03 08:52:07;;;;;;;5.97;1.70;;;;;;;;;;5153526;27;20037;-65
2021/06/03 08:54:36;;;;;;;4.53;1.67;;;;;;;;;;5153830;27;20049;-65
2021/06/03 08:57:05;;;;;;;6.18;1.45;;;;;;;;;;5133090;27;20015;-63
2021/06/03 08:59:31;;;;;;;4.97;1.77;;;;;;;;;;5115192;27;20020;-65
2021/06/03 09:01:57;;;;;;;4.82;1.75;;;;;;;;;;5132984;27;20166;-67
2021/06/03 09:04:23;;;;;;;4.18;1.60;;;;;;;;;;5132104;27;20175;-64
2021/06/03 09:06:49;;;;;;;4.25;1.70;;;;;;;;;;5115135;27;20031;-66
2021/06/03 09:09:23;;;;;;;5.25;1.63;;;;;;;;;;5133155;27;20019;-62
2021/06/03 09:12:08;;;;;;;4.07;1.60;;;;;;;;;;5132926;27;20022;-65
2021/06/03 09:14:34;;;;;;;2.65;1.35;;;;;;;;;;5132743;27;20026;-65
2021/06/03 09:17:00;;;;;;;3.83;1.65;;;;;;;;;;5132819;27;20404;-69
2021/06/03 09:19:26;;;;;;;5.55;1.45;;;;;;;;;;5132554;27;20094;-65
2021/06/03 09:21:53;;;;;;;3.83;1.50;;;;;;;;;;5132389;27;20038;-65
2021/06/03 09:24:20;;;;;;;7.47;1.70;;;;;;;;;;5132221;27;20020;-65
2021/06/03 09:26:46;;;;;;;4.65;1.65;;;;;;;;;;5142366;27;20177;-66
2021/06/03 09:29:29;;;;;;;2.75;1.30;;;;;;;;;;5153322;27;20050;-66
2021/06/03 09:32:06;;;;;;;5.35;1.50;;;;;;;;;;5153206;27;20087;-65
2021/06/03 09:34:33;;;;;;;4.25;1.33;;;;;;;;;;5153013;27;20106;-66
2021/06/03 09:37:00;;;;;;;4.88;1.90;;;;;;;;;;5152978;27;20096;-66
2021/06/03 09:39:26;;;;;;;4.20;1.70;;;;;;;;;;5152771;27;20074;-66
2021/06/03 09:41:55;;;;;;;4.03;1.70;;;;;;;;;;5152826;27;20070;-67
2021/06/03 09:44:30;;;;;;;3.88;1.40;;;;;;;;;;5152878;27;20098;-66
2021/06/03 09:47:02;;;;;;;4.55;1.35;;;;;;;;;;5152999;27;20023;-66
2021/06/03 09:49:30;;;;;;;3.55;1.48;;;;;;;;;;5152979;27;20019;-67
2021/06/03 09:52:04;;;;;;;5.28;1.75;;;;;;;;;;5152885;27;20023;-68
2021/06/03 09:54:30;;;;;;;3.20;1.60;;;;;;;;;;5134199;27;20015;-65
2021/06/03 09:56:58;;;;;;;4.47;1.73;;;;;;;;;;5152973;27;20029;-65
2021/06/03 09:59:35;;;;;;;6.88;1.60;;;;;;;;;;5134294;27;20019;-66
2021/06/03 10:02:08;;;;;;;5.00;1.52;;;;;;;;;;5152722;27;20080;-66
2021/06/03 10:04:38;;;;;;;3.42;1.50;;;;;;;;;;5152904;27;20022;-67
2021/06/03 10:07:13;;;;;;;3.67;1.60;;;;;;;;;;5152852;27;20538;-65
2021/06/03 10:09:48;;;;;;;3.90;1.70;;;;;;;;;;5152695;27;20426;-67
2021/06/03 10:12:24;;;;;;;3.42;1.60;;;;;;;;;;5152980;27;20033;-66
2021/06/03 10:14:55;;;;;;;3.20;1.30;;;;;;;;;;5134637;27;20030;-63
2021/06/03 10:17:27;;;;;;;2.75;1.33;;;;;;;;;;5157429;27;20497;-63
2021/06/03 10:19:54;;;;;;;3.00;1.40;;;;;;;;;;5139061;27;20027;-63
2021/06/03 10:22:24;;;;;;;5.18;1.45;;;;;;;;;;5138703;27;20053;-62
2021/06/03 10:24:50;;;;;;;6.85;1.95;;;;;;;;;;5157572;27;20094;-62
2021/06/03 10:27:17;;;;;;;8.30;2.13;;;;;;;;;;5157575;27;20067;-62
2021/06/03 10:29:44;;;;;;;7.95;2.30;;;;;;;;;;5156803;27;20015;-62
2021/06/03 10:32:10;;;;;;;20.83;2.70;;;;;;;;;;5156414;27;20018;-63
2021/06/03 10:34:37;;;;;;;13.88;2.75;;;;;;;;;;5157003;27;20094;-62
2021/06/03 10:37:04;;;;;;;14.55;2.47;;;;;;;;;;5140982;27;20023;-63
2021/06/03 10:39:31;;;;;;;11.93;2.72;;;;;;;;;;5152673;27;20390;-63
2021/06/03 10:41:58;;;;;;;8.40;2.10;;;;;;;;;;5155539;27;20377;-63
2021/06/03 10:44:24;;;;;;;13.52;2.88;;;;;;;;;;5155710;27;20015;-63
2021/06/03 10:46:51;;;;;;;11.98;2.58;;;;;;;;;;5155846;27;20027;-63
2021/06/03 10:49:17;;;;;;;16.45;2.78;;;;;;;;;;5156116;27;20029;-63
2021/06/03 10:51:43;;;;;;;12.38;2.63;;;;;;;;;;5156007;27;20155;-63
2021/06/03 10:54:09;;;;;;;9.48;2.40;;;;;;;;;;5156014;27;20026;-63
2021/06/03 10:56:35;;;;;;;9.40;2.42;;;;;;;;;;5156314;27;20473;-63
2021/06/03 10:59:04;;;;;;;6.60;2.00;;;;;;;;;;5156658;27;20015;-63
2021/06/03 11:01:34;;;;;;;8.55;2.22;;;;;;;;;;5156476;27;20031;-64
2021/06/03 11:04:03;;;;;;;6.82;1.77;;;;;;;;;;5137890;27;20177;-63
2021/06/03 11:06:30;;;;;;;7.43;2.00;;;;;;;;;;5156444;27;20022;-63
2021/06/03 11:08:56;;;;;;;9.40;2.45;;;;;;;;;;5156653;27;20136;-63
2021/06/03 11:11:26;;;;;;;6.18;2.05;;;;;;;;;;5156629;27;20019;-63
2021/06/03 11:13:53;;;;;;;9.25;2.03;;;;;;;;;;5156551;27;20041;-63
2021/06/03 11:16:23;;;;;;;9.98;1.88;;;;;;;;;;5156230;27;20029;-63
2021/06/03 11:18:49;;;;;;;10.65;2.10;;;;;;;;;;5156378;27;20061;-63
2021/06/03 11:21:43;;;;;;;6.00;1.70;;;;;;;;;;5156391;27;20034;-64
2021/06/03 11:24:09;;;;;;;6.50;1.85;;;;;;;;;;5156396;27;20152;-63
2021/06/03 11:26:40;;;;;;;8.75;2.13;;;;;;;;;;5155451;27;20094;-63
2021/06/03 11:29:12;;;;;;;5.40;1.95;;;;;;;;;;5155776;27;20049;-63
2021/06/03 11:31:40;;;;;;;6.55;2.08;;;;;;;;;;5156228;27;20049;-63
2021/06/03 11:34:15;;;;;;;6.57;2.00;;;;;;;;;;5150232;27;20029;-63
2021/06/03 11:36:42;;;;;;;4.93;1.80;;;;;;;;;;5144688;27;20023;-64
2021/06/03 11:39:28;;;;;;;7.18;2.08;;;;;;;;;;5142263;27;20031;-62
2021/06/03 11:42:17;;;;;;;6.93;1.83;;;;;;;;;;5133810;27;20374;-63
2021/06/03 11:45:10;;;;;;;8.80;2.08;;;;;;;;;;5155790;27;20019;-63
2021/06/03 11:47:42;;;;;;;9.38;2.17;;;;;;;;;;5155729;27;20029;-66
2021/06/03 11:50:18;;;;;;;10.57;1.92;;;;;;;;;;5135274;27;20031;-65
2021/06/03 11:52:56;;;;;;;5.47;2.00;;;;;;;;;;5154964;27;20022;-65
2021/06/03 11:55:32;;;;;;;11.40;2.10;;;;;;;;;;5147579;27;20026;-63
2021/06/03 11:58:17;;;;;;;4.25;1.42;;;;;;;;;;5134065;27;20394;-65
2021/06/03 12:00:45;;;;;;;9.57;1.52;;;;;;;;;;5133958;27;20023;-65
2021/06/03 12:03:30;;;;;;;3.67;1.50;;;;;;;;;;5134106;27;20027;-65
2021/06/03 12:05:57;;;;;;;9.73;1.92;;;;;;;;;;5141632;27;20042;-64
2021/06/03 12:08:34;;;;;;;5.18;1.88;;;;;;;;;;5127094;27;20384;-67
2021/06/03 12:11:00;;;;;;;8.25;2.08;;;;;;;;;;5149897;27;20023;-65
2021/06/03 12:13:26;;;;;;;4.28;1.77;;;;;;;;;;5154450;27;20060;-66
2021/06/03 12:15:53;;;;;;;4.22;1.67;;;;;;;;;;5147395;27;20046;-65
2021/06/03 12:18:19;;;;;;;5.32;2.03;;;;;;;;;;5131170;27;20076;-67
2021/06/03 12:20:45;;;;;;;5.35;1.88;;;;;;;;;;5135935;27;20022;-65
2021/06/03 12:23:12;;;;;;;7.75;2.00;;;;;;;;;;5154650;27;20026;-63
2021/06/03 12:25:40;;;;;;;6.90;1.83;;;;;;;;;;5154727;27;20030;-64
2021/06/03 12:28:06;;;;;;;4.88;1.80;;;;;;;;;;5154510;27;20027;-62
2021/06/03 12:30:34;;;;;;;5.07;2.13;;;;;;;;;;5154252;27;20019;-62
2021/06/03 12:33:00;;;;;;;4.95;1.90;;;;;;;;;;5153994;27;20019;-62
2021/06/03 12:35:37;;;;;;;3.78;1.73;;;;;;;;;;5154212;27;20027;-64
2021/06/03 12:38:05;;;;;;;8.40;1.98;;;;;;;;;;5143414;27;20055;-64
2021/06/03 12:40:31;;;;;;;4.55;1.60;;;;;;;;;;5133454;27;20023;-63
2021/06/03 12:43:08;;;;;;;6.95;1.88;;;;;;;;;;5133260;27;20374;-65
2021/06/03 12:45:37;;;;;;;5.95;1.42;;;;;;;;;;5098042;27;20149;-67
2021/06/03 12:48:05;;;;;;;3.25;1.50;;;;;;;;;;5132971;27;20502;-65
2021/06/03 12:50:31;;;;;;;4.00;1.40;;;;;;;;;;5144743;27;20390;-62
2021/06/03 12:52:57;;;;;;;7.50;1.92;;;;;;;;;;5149863;27;20037;-62
2021/06/03 12:55:26;;;;;;;6.45;1.50;;;;;;;;;;5151309;27;20080;-62
2021/06/03 12:57:53;;;;;;;6.22;1.42;;;;;;;;;;5132941;27;20033;-66
2021/06/03 13:00:26;;;;;;;3.67;1.33;;;;;;;;;;5132696;27;20098;-64
2021/06/03 13:02:52;;;;;;;4.40;1.48;;;;;;;;;;5132745;27;20035;-65
2021/06/03 13:05:19;;;;;;;3.53;1.50;;;;;;;;;;5132724;27;20019;-64
2021/06/03 13:07:46;;;;;;;3.35;1.58;;;;;;;;;;5132890;27;20502;-65
2021/06/03 13:10:16;;;;;;;6.65;1.58;;;;;;;;;;5116773;27;20038;-63
2021/06/03 13:12:47;;;;;;;6.68;1.83;;;;;;;;;;5132752;27;20374;-65
2021/06/03 13:15:13;;;;;;;7.90;1.30;;;;;;;;;;5132634;27;20015;-64
2021/06/03 13:17:43;;;;;;;8.63;1.60;;;;;;;;;;5132658;27;20023;-65
2021/06/03 13:20:17;;;;;;;4.88;1.55;;;;;;;;;;5132545;27;20023;-63
2021/06/03 13:22:53;;;;;;;4.45;1.60;;;;;;;;;;5148545;27;20035;-65
2021/06/03 13:25:21;;;;;;;5.18;1.73;;;;;;;;;;5153137;27;20047;-65
2021/06/03 13:27:49;;;;;;;11.82;2.38;;;;;;;;;;5152952;27;20023;-64
2021/06/03 13:30:15;;;;;;;5.05;1.67;;;;;;;;;;5134736;27;20392;-65
2021/06/03 13:32:41;;;;;;;9.85;1.88;;;;;;;;;;5153297;27;20109;-66
2021/06/03 13:35:09;;;;;;;3.72;1.55;;;;;;;;;;5153037;27;20019;-66
2021/06/03 13:37:37;;;;;;;9.70;1.70;;;;;;;;;;5130858;27;20354;-66
2021/06/03 13:40:06;;;;;;;10.65;2.20;;;;;;;;;;5131160;27;20044;-65
2021/06/03 13:42:38;;;;;;;12.00;3.05;;;;;;;;;;5111595;28;20039;-61
2021/06/03 13:45:07;;;;;;;4.47;2.05;;;;;;;;;;5111639;28;20054;-62
2021/06/03 13:47:36;;;;;;;14.82;2.13;;;;;;;;;;5111497;28;20016;-63
2021/06/03 13:50:12;;;;;;;9.85;1.85;;;;;;;;;;5110748;28;20051;-62
2021/06/03 13:52:44;;;;;;;8.05;2.10;;;;;;;;;;5111395;28;20016;-63
2021/06/03 13:55:15;;;;;;;8.95;2.50;;;;;;;;;;5116342;28;20054;-62
2021/06/03 13:57:44;;;;;;;17.23;4.75;;;;;;;;;;5131985;28;20579;-62
2021/06/03 14:00:11;;;;;;;21.63;8.88;;;;;;;;;;5131518;28;20099;-63
2021/06/03 14:02:37;;;;;;;36.42;13.30;;;;;;;;;;5131723;28;20042;-63
2021/06/03 14:05:11;;;;;;;87.65;36.10;;;;;;;;;;5131727;28;20031;-62
2021/06/03 14:07:37;;;;;;;128.15;52.90;;;;;;;;;;5131899;28;20015;-62
2021/06/03 14:10:11;;;;;;;125.47;50.72;;;;;;;;;;5131483;28;20478;-62
2021/06/03 14:12:46;;;;;;;104.10;42.47;;;;;;;;;;5131915;27;20080;-63
2021/06/03 14:15:15;;;;;;;102.20;39.30;;;;;;;;;;5128281;27;20102;-63
2021/06/03 14:17:41;;;;;;;89.05;34.15;;;;;;;;;;5119189;28;20106;-63
2021/06/03 14:20:15;;;;;;;76.05;31.45;;;;;;;;;;5122098;28;20050;-62
2021/06/03 14:22:42;;;;;;;84.07;34.10;;;;;;;;;;5124757;28;20035;-62
2021/06/03 14:25:13;;;;;;;62.85;26.02;;;;;;;;;;5131770;27;20020;-63
2021/06/03 14:27:40;;;;;;;51.47;19.05;;;;;;;;;;5131989;28;20030;-65
2021/06/03 14:30:13;;;;;;;30.98;11.20;;;;;;;;;;5130346;28;20441;-63
2021/06/03 14:32:45;;;;;;;26.58;9.07;;;;;;;;;;5130525;28;20047;-65
2021/06/03 14:35:13;;;;;;;21.15;9.25;;;;;;;;;;5131813;28;20019;-64
2021/06/03 14:37:39;;;;;;;22.80;9.05;;;;;;;;;;5135868;27;20039;-63
2021/06/03 14:40:06;;;;;;;21.45;8.20;;;;;;;;;;5137318;27;20027;-66
2021/06/03 14:42:34;;;;;;;17.85;6.10;;;;;;;;;;5131624;28;20538;-60
2021/06/03 14:45:01;;;;;;;19.25;5.80;;;;;;;;;;5141084;27;20015;-62
2021/06/03 14:47:28;;;;;;;14.38;5.68;;;;;;;;;;5152361;27;20011;-66